sensor_id;sensor_type;location;lat;lon;timestamp;pressure;altitude;pressure_sealevel;temperature;humidity
10652;BME280;5374;42.742;23.266;2022-09-30T00:00:09;95091.47;;;15.91;100.00
10652;BME280;5374;42.742;23.266;2022-09-30T00:02:57;95085.66;;;15.84;100.00
10652;BME280;5374;42.742;23.266;2022-09-30T00:05:44;95106.50;;;15.87;100.00
10652;BME280;5374;42.742;23.266;2022-09-30T00:08:33;95096.88;;;15.86;100.00
10652;BME280;5374;42.742;23.266;2022-09-30T00:11:21;95097.47;;;15.83;100.00
10652;BME280;5374;42.742;23.266;2022-09-30T00:14:13;95094.78;;;15.83;100.00
10652;BME280;5374;42.742;23.266;2022-09-30T00:17:00;95095.47;;;15.75;100.00
10652;BME280;5374;42.742;23.266;2022-09-30T00:19:47;95097.06;;;15.76;100.00
10652;BME280;5374;42.742;23.266;2022-09-30T00:22:35;95108.34;;;15.72;100.00
10652;BME280;5374;42.742;23.266;2022-09-30T00:25:23;95099.56;;;15.67;100.00
10652;BME280;5374;42.742;23.266;2022-09-30T00:28:10;95113.47;;;15.69;100.00
10652;BME280;5374;42.742;23.266;2022-09-30T00:30:58;95110.84;;;15.64;100.00
10652;BME280;5374;42.742;23.266;2022-09-30T00:33:47;95110.34;;;15.62;100.00
10652;BME280;5374;42.742;23.266;2022-09-30T00:36:52;95106.88;;;15.61;100.00
10652;BME280;5374;42.742;23.266;2022-09-30T00:39:41;95099.53;;;15.48;100.00
10652;BME280;5374;42.742;23.266;2022-09-30T00:42:29;95100.00;;;15.55;100.00
10652;BME280;5374;42.742;23.266;2022-09-30T00:45:17;95094.94;;;15.54;100.00
10652;BME280;5374;42.742;23.266;2022-09-30T00:48:07;95089.34;;;15.50;100.00
10652;BME280;5374;42.742;23.266;2022-09-30T00:50:57;95084.81;;;15.51;100.00
10652;BME280;5374;42.742;23.266;2022-09-30T00:53:49;95093.13;;;15.49;100.00
10652;BME280;5374;42.742;23.266;2022-09-30T00:56:39;95091.16;;;15.55;100.00
10652;BME280;5374;42.742;23.266;2022-09-30T00:59:32;95099.31;;;15.45;100.00
10652;BME280;5374;42.742;23.266;2022-09-30T01:02:21;95087.09;;;15.38;100.00
10652;BME280;5374;42.742;23.266;2022-09-30T01:05:08;95089.47;;;15.40;100.00
10652;BME280;5374;42.742;23.266;2022-09-30T01:07:57;95089.75;;;15.20;100.00
10652;BME280;5374;42.742;23.266;2022-09-30T01:10:46;95091.78;;;15.28;100.00
10652;BME280;5374;42.742;23.266;2022-09-30T01:13:34;95098.22;;;15.27;100.00
10652;BME280;5374;42.742;23.266;2022-09-30T01:16:38;95097.94;;;15.28;100.00
10652;BME280;5374;42.742;23.266;2022-09-30T01:22:53;95110.47;;;15.33;100.00
10652;BME280;5374;42.742;23.266;2022-09-30T01:26:03;95113.03;;;15.38;100.00
10652;BME280;5374;42.742;23.266;2022-09-30T01:32:40;95117.31;;;15.39;100.00
10652;BME280;5374;42.742;23.266;2022-09-30T01:35:44;95100.75;;;15.37;100.00
10652;BME280;5374;42.742;23.266;2022-09-30T01:38:44;95103.38;;;15.42;100.00
10652;BME280;5374;42.742;23.266;2022-09-30T01:41:38;95111.97;;;15.39;100.00
10652;BME280;5374;42.742;23.266;2022-09-30T01:44:35;95106.75;;;15.29;100.00
10652;BME280;5374;42.742;23.266;2022-09-30T01:47:26;95109.38;;;15.34;100.00
10652;BME280;5374;42.742;23.266;2022-09-30T01:50:18;95098.97;;;15.32;100.00
10652;BME280;5374;42.742;23.266;2022-09-30T01:53:13;95107.78;;;15.33;100.00
10652;BME280;5374;42.742;23.266;2022-09-30T01:56:07;95109.66;;;15.32;100.00
10652;BME280;5374;42.742;23.266;2022-09-30T01:58:58;95112.63;;;15.31;100.00
10652;BME280;5374;42.742;23.266;2022-09-30T02:01:50;95114.22;;;15.32;100.00
10652;BME280;5374;42.742;23.266;2022-09-30T02:04:42;95102.50;;;15.28;100.00
10652;BME280;5374;42.742;23.266;2022-09-30T02:07:35;95110.56;;;15.23;100.00
10652;BME280;5374;42.742;23.266;2022-09-30T02:10:26;95124.69;;;15.28;100.00
10652;BME280;5374;42.742;23.266;2022-09-30T02:13:18;95114.00;;;15.28;100.00
10652;BME280;5374;42.742;23.266;2022-09-30T02:16:10;95126.28;;;15.29;100.00
10652;BME280;5374;42.742;23.266;2022-09-30T02:19:02;95124.34;;;15.35;100.00
10652;BME280;5374;42.742;23.266;2022-09-30T02:21:56;95108.94;;;15.27;100.00
10652;BME280;5374;42.742;23.266;2022-09-30T02:24:50;95128.09;;;15.34;100.00
10652;BME280;5374;42.742;23.266;2022-09-30T02:27:42;95128.09;;;15.34;100.00
10652;BME280;5374;42.742;23.266;2022-09-30T02:30:33;95133.47;;;15.34;100.00
10652;BME280;5374;42.742;23.266;2022-09-30T02:33:29;95125.31;;;15.20;100.00
10652;BME280;5374;42.742;23.266;2022-09-30T02:36:21;95124.19;;;15.26;100.00
10652;BME280;5374;42.742;23.266;2022-09-30T02:39:19;95128.72;;;15.26;100.00
10652;BME280;5374;42.742;23.266;2022-09-30T02:42:12;95119.34;;;15.28;100.00
10652;BME280;5374;42.742;23.266;2022-09-30T02:45:07;95127.66;;;15.27;100.00
10652;BME280;5374;42.742;23.266;2022-09-30T02:48:03;95133.22;;;15.30;100.00
10652;BME280;5374;42.742;23.266;2022-09-30T02:50:59;95125.59;;;15.19;100.00
10652;BME280;5374;42.742;23.266;2022-09-30T02:53:57;95129.13;;;15.14;100.00
10652;BME280;5374;42.742;23.266;2022-09-30T02:56:51;95130.44;;;15.17;100.00
10652;BME280;5374;42.742;23.266;2022-09-30T02:59:40;95125.38;;;15.15;100.00
10652;BME280;5374;42.742;23.266;2022-09-30T03:02:28;95137.66;;;15.16;100.00
10652;BME280;5374;42.742;23.266;2022-09-30T03:05:15;95143.00;;;15.16;100.00
10652;BME280;5374;42.742;23.266;2022-09-30T03:08:02;95132.22;;;15.02;100.00
10652;BME280;5374;42.742;23.266;2022-09-30T03:10:50;95142.91;;;15.02;100.00
10652;BME280;5374;42.742;23.266;2022-09-30T03:14:15;95151.41;;;15.10;100.00
10652;BME280;5374;42.742;23.266;2022-09-30T03:20:33;95138.06;;;15.04;100.00
10652;BME280;5374;42.742;23.266;2022-09-30T03:23:34;95134.38;;;15.00;100.00
10652;BME280;5374;42.742;23.266;2022-09-30T03:26:34;95137.03;;;15.00;100.00
10652;BME280;5374;42.742;23.266;2022-09-30T03:29:27;95140.50;;;15.01;100.00
10652;BME280;5374;42.742;23.266;2022-09-30T03:32:29;95132.16;;;14.84;100.00
10652;BME280;5374;42.742;23.266;2022-09-30T03:35:20;95143.59;;;14.89;100.00
10652;BME280;5374;42.742;23.266;2022-09-30T03:38:16;95141.72;;;14.90;100.00
10652;BME280;5374;42.742;23.266;2022-09-30T03:41:15;95146.47;;;14.93;100.00
10652;BME280;5374;42.742;23.266;2022-09-30T03:44:10;95151.53;;;14.94;100.00
10652;BME280;5374;42.742;23.266;2022-09-30T03:47:02;95151.63;;;14.89;100.00
10652;BME280;5374;42.742;23.266;2022-09-30T03:49:56;95171.94;;;14.90;100.00
10652;BME280;5374;42.742;23.266;2022-09-30T03:52:45;95176.06;;;15.01;100.00
10652;BME280;5374;42.742;23.266;2022-09-30T03:55:45;95166.97;;;15.02;100.00
10652;BME280;5374;42.742;23.266;2022-09-30T03:58:39;95172.31;;;15.02;100.00
10652;BME280;5374;42.742;23.266;2022-09-30T04:01:27;95190.47;;;15.05;100.00
10652;BME280;5374;42.742;23.266;2022-09-30T04:04:14;95189.44;;;15.01;100.00
10652;BME280;5374;42.742;23.266;2022-09-30T04:07:03;95177.66;;;15.02;100.00
10652;BME280;5374;42.742;23.266;2022-09-30T04:09:50;95170.16;;;15.04;100.00
10652;BME280;5374;42.742;23.266;2022-09-30T04:12:37;95172.38;;;14.97;100.00
10652;BME280;5374;42.742;23.266;2022-09-30T04:15:24;95168.34;;;15.00;100.00
10652;BME280;5374;42.742;23.266;2022-09-30T04:18:12;95170.72;;;15.01;100.00
10652;BME280;5374;42.742;23.266;2022-09-30T04:20:59;95171.56;;;14.97;100.00
10652;BME280;5374;42.742;23.266;2022-09-30T04:23:48;95170.34;;;14.89;100.00
10652;BME280;5374;42.742;23.266;2022-09-30T04:26:35;95170.78;;;14.96;100.00
10652;BME280;5374;42.742;23.266;2022-09-30T04:29:22;95176.75;;;14.88;100.00
10652;BME280;5374;42.742;23.266;2022-09-30T04:32:10;95177.44;;;14.70;100.00
10652;BME280;5374;42.742;23.266;2022-09-30T04:34:59;95188.34;;;14.79;100.00
10652;BME280;5374;42.742;23.266;2022-09-30T04:37:46;95181.69;;;14.76;100.00
10652;BME280;5374;42.742;23.266;2022-09-30T04:40:36;95199.25;;;14.82;100.00
10652;BME280;5374;42.742;23.266;2022-09-30T04:43:26;95196.31;;;14.84;100.00
10652;BME280;5374;42.742;23.266;2022-09-30T04:46:20;95211.00;;;14.86;100.00
10652;BME280;5374;42.742;23.266;2022-09-30T04:49:07;95197.38;;;14.83;100.00
10652;BME280;5374;42.742;23.266;2022-09-30T04:51:54;95196.59;;;14.82;100.00
10652;BME280;5374;42.742;23.266;2022-09-30T04:54:42;95228.56;;;14.92;100.00
10652;BME280;5374;42.742;23.266;2022-09-30T04:57:30;95228.63;;;14.87;100.00
10652;BME280;5374;42.742;23.266;2022-09-30T05:00:17;95222.72;;;14.90;100.00
10652;BME280;5374;42.742;23.266;2022-09-30T05:03:05;95214.47;;;14.87;100.00
10652;BME280;5374;42.742;23.266;2022-09-30T05:05:52;95212.53;;;14.92;100.00
10652;BME280;5374;42.742;23.266;2022-09-30T05:08:39;95217.38;;;14.90;100.00
10652;BME280;5374;42.742;23.266;2022-09-30T05:11:28;95208.44;;;15.00;100.00
10652;BME280;5374;42.742;23.266;2022-09-30T05:14:16;95223.38;;;15.06;100.00
10652;BME280;5374;42.742;23.266;2022-09-30T05:17:03;95232.78;;;14.98;100.00
10652;BME280;5374;42.742;23.266;2022-09-30T05:19:50;95239.50;;;14.96;100.00
10652;BME280;5374;42.742;23.266;2022-09-30T05:22:37;95223.41;;;14.72;100.00
10652;BME280;5374;42.742;23.266;2022-09-30T05:25:25;95238.28;;;14.83;100.00
10652;BME280;5374;42.742;23.266;2022-09-30T05:28:12;95236.38;;;14.89;100.00
10652;BME280;5374;42.742;23.266;2022-09-30T05:31:03;95230.63;;;15.00;100.00
10652;BME280;5374;42.742;23.266;2022-09-30T05:33:50;95239.56;;;15.15;100.00
10652;BME280;5374;42.742;23.266;2022-09-30T05:36:39;95235.19;;;15.00;100.00
10652;BME280;5374;42.742;23.266;2022-09-30T05:39:26;95255.59;;;15.20;100.00
10652;BME280;5374;42.742;23.266;2022-09-30T05:42:13;95255.03;;;15.23;100.00
10652;BME280;5374;42.742;23.266;2022-09-30T05:45:00;95269.19;;;15.23;100.00
10652;BME280;5374;42.742;23.266;2022-09-30T05:47:51;95267.56;;;15.27;100.00
10652;BME280;5374;42.742;23.266;2022-09-30T05:50:39;95253.38;;;15.27;100.00
10652;BME280;5374;42.742;23.266;2022-09-30T05:53:26;95268.19;;;15.43;100.00
10652;BME280;5374;42.742;23.266;2022-09-30T05:56:13;95257.75;;;15.42;100.00
10652;BME280;5374;42.742;23.266;2022-09-30T05:59:01;95261.19;;;15.47;100.00
10652;BME280;5374;42.742;23.266;2022-09-30T06:01:48;95258.47;;;15.52;100.00
10652;BME280;5374;42.742;23.266;2022-09-30T06:04:36;95271.56;;;15.54;100.00
10652;BME280;5374;42.742;23.266;2022-09-30T06:07:23;95272.25;;;15.64;100.00
10652;BME280;5374;42.742;23.266;2022-09-30T06:10:10;95274.66;;;15.37;100.00
10652;BME280;5374;42.742;23.266;2022-09-30T06:12:58;95285.22;;;15.52;100.00
10652;BME280;5374;42.742;23.266;2022-09-30T06:15:54;95278.78;;;15.58;100.00
10652;BME280;5374;42.742;23.266;2022-09-30T06:18:42;95282.09;;;15.45;100.00
10652;BME280;5374;42.742;23.266;2022-09-30T06:21:30;95288.63;;;15.34;100.00
10652;BME280;5374;42.742;23.266;2022-09-30T06:24:18;95289.69;;;15.62;100.00
10652;BME280;5374;42.742;23.266;2022-09-30T06:27:05;95292.81;;;15.69;100.00
10652;BME280;5374;42.742;23.266;2022-09-30T06:29:52;95296.19;;;15.80;100.00
10652;BME280;5374;42.742;23.266;2022-09-30T06:32:40;95303.59;;;15.88;100.00
10652;BME280;5374;42.742;23.266;2022-09-30T06:35:28;95309.97;;;15.92;100.00
10652;BME280;5374;42.742;23.266;2022-09-30T06:38:17;95315.78;;;15.99;100.00
10652;BME280;5374;42.742;23.266;2022-09-30T06:41:06;95307.69;;;16.04;100.00
10652;BME280;5374;42.742;23.266;2022-09-30T06:43:53;95325.84;;;16.07;100.00
10652;BME280;5374;42.742;23.266;2022-09-30T06:46:40;95320.78;;;16.05;100.00
10652;BME280;5374;42.742;23.266;2022-09-30T06:49:28;95326.03;;;16.16;100.00
10652;BME280;5374;42.742;23.266;2022-09-30T06:52:15;95334.94;;;16.30;100.00
10652;BME280;5374;42.742;23.266;2022-09-30T06:55:04;95336.34;;;16.46;100.00
10652;BME280;5374;42.742;23.266;2022-09-30T06:57:51;95344.75;;;16.58;100.00
10652;BME280;5374;42.742;23.266;2022-09-30T07:00:38;95341.78;;;16.60;100.00
10652;BME280;5374;42.742;23.266;2022-09-30T07:03:27;95345.50;;;16.83;100.00
10652;BME280;5374;42.742;23.266;2022-09-30T07:06:15;95356.66;;;16.90;100.00
10652;BME280;5374;42.742;23.266;2022-09-30T07:09:02;95348.75;;;16.98;100.00
10652;BME280;5374;42.742;23.266;2022-09-30T07:11:50;95358.03;;;17.06;100.00
10652;BME280;5374;42.742;23.266;2022-09-30T07:14:37;95362.81;;;17.09;100.00
10652;BME280;5374;42.742;23.266;2022-09-30T07:17:25;95353.78;;;17.19;100.00
10652;BME280;5374;42.742;23.266;2022-09-30T07:20:12;95356.00;;;17.17;100.00
10652;BME280;5374;42.742;23.266;2022-09-30T07:22:59;95361.72;;;17.42;100.00
10652;BME280;5374;42.742;23.266;2022-09-30T07:25:51;95363.31;;;17.90;100.00
10652;BME280;5374;42.742;23.266;2022-09-30T07:28:40;95370.09;;;17.87;100.00
10652;BME280;5374;42.742;23.266;2022-09-30T07:31:28;95357.56;;;18.10;100.00
10652;BME280;5374;42.742;23.266;2022-09-30T07:34:15;95364.75;;;18.28;100.00
10652;BME280;5374;42.742;23.266;2022-09-30T07:37:03;95380.44;;;18.07;100.00
10652;BME280;5374;42.742;23.266;2022-09-30T07:39:50;95375.47;;;18.42;100.00
10652;BME280;5374;42.742;23.266;2022-09-30T07:42:39;95380.41;;;18.90;100.00
10652;BME280;5374;42.742;23.266;2022-09-30T07:45:31;95375.09;;;19.21;100.00
10652;BME280;5374;42.742;23.266;2022-09-30T07:48:18;95370.97;;;19.59;100.00
10652;BME280;5374;42.742;23.266;2022-09-30T07:51:24;95389.31;;;20.10;100.00
10652;BME280;5374;42.742;23.266;2022-09-30T07:54:15;95389.31;;;20.59;100.00
10652;BME280;5374;42.742;23.266;2022-09-30T07:57:03;95385.31;;;21.22;100.00
10652;BME280;5374;42.742;23.266;2022-09-30T07:59:51;95384.00;;;21.54;100.00
10652;BME280;5374;42.742;23.266;2022-09-30T08:02:39;95385.41;;;21.68;100.00
10652;BME280;5374;42.742;23.266;2022-09-30T08:05:26;95392.84;;;21.80;100.00
10652;BME280;5374;42.742;23.266;2022-09-30T08:08:14;95390.28;;;21.92;100.00
10652;BME280;5374;42.742;23.266;2022-09-30T08:11:04;95396.63;;;21.96;100.00
10652;BME280;5374;42.742;23.266;2022-09-30T08:13:51;95398.56;;;22.04;100.00
10652;BME280;5374;42.742;23.266;2022-09-30T08:16:39;95397.84;;;22.16;100.00
10652;BME280;5374;42.742;23.266;2022-09-30T08:19:29;95401.97;;;22.22;100.00
10652;BME280;5374;42.742;23.266;2022-09-30T08:22:18;95394.09;;;22.38;100.00
10652;BME280;5374;42.742;23.266;2022-09-30T08:25:06;95396.47;;;22.48;100.00
10652;BME280;5374;42.742;23.266;2022-09-30T08:27:53;95408.63;;;22.63;100.00
10652;BME280;5374;42.742;23.266;2022-09-30T08:30:40;95414.53;;;22.65;100.00
10652;BME280;5374;42.742;23.266;2022-09-30T08:33:27;95413.47;;;22.57;100.00
10652;BME280;5374;42.742;23.266;2022-09-30T08:36:17;95416.56;;;22.68;100.00
10652;BME280;5374;42.742;23.266;2022-09-30T08:39:05;95422.00;;;22.68;100.00
10652;BME280;5374;42.742;23.266;2022-09-30T08:42:24;95406.88;;;22.67;100.00
10652;BME280;5374;42.742;23.266;2022-09-30T08:45:21;95411.50;;;22.66;100.00
10652;BME280;5374;42.742;23.266;2022-09-30T08:48:21;95419.09;;;22.81;100.00
10652;BME280;5374;42.742;23.266;2022-09-30T08:51:25;95424.53;;;23.02;100.00
10652;BME280;5374;42.742;23.266;2022-09-30T08:54:17;95415.28;;;23.03;100.00
10652;BME280;5374;42.742;23.266;2022-09-30T08:57:05;95422.47;;;22.99;100.00
10652;BME280;5374;42.742;23.266;2022-09-30T08:59:58;95407.91;;;22.83;100.00
10652;BME280;5374;42.742;23.266;2022-09-30T09:02:52;95418.56;;;22.88;100.00
10652;BME280;5374;42.742;23.266;2022-09-30T09:05:47;95411.84;;;22.94;100.00
10652;BME280;5374;42.742;23.266;2022-09-30T09:08:52;95420.78;;;23.15;100.00
10652;BME280;5374;42.742;23.266;2022-09-30T09:11:58;95430.44;;;23.46;100.00
10652;BME280;5374;42.742;23.266;2022-09-30T09:15:00;95434.91;;;23.83;100.00
10652;BME280;5374;42.742;23.266;2022-09-30T09:21:28;95426.00;;;24.28;88.63
10652;BME280;5374;42.742;23.266;2022-09-30T09:24:20;95424.41;;;24.27;84.01
10652;BME280;5374;42.742;23.266;2022-09-30T09:27:17;95423.41;;;24.44;83.72
10652;BME280;5374;42.742;23.266;2022-09-30T09:30:06;95420.16;;;24.50;83.78
10652;BME280;5374;42.742;23.266;2022-09-30T09:32:56;95421.28;;;24.62;83.99
10652;BME280;5374;42.742;23.266;2022-09-30T09:35:46;95411.28;;;24.90;79.45
10652;BME280;5374;42.742;23.266;2022-09-30T09:38:42;95410.88;;;25.00;80.10
10652;BME280;5374;42.742;23.266;2022-09-30T09:41:42;95418.91;;;24.84;77.77
10652;BME280;5374;42.742;23.266;2022-09-30T09:44:38;95408.28;;;25.04;77.22
10652;BME280;5374;42.742;23.266;2022-09-30T09:47:29;95410.81;;;25.25;78.87
10652;BME280;5374;42.742;23.266;2022-09-30T09:50:21;95401.47;;;25.50;61.66
10652;BME280;5374;42.742;23.266;2022-09-30T09:53:37;95401.19;;;25.55;56.81
10652;BME280;5374;42.742;23.266;2022-09-30T09:56:27;95399.72;;;25.58;57.04
10652;BME280;5374;42.742;23.266;2022-09-30T09:59:18;95399.59;;;25.66;53.73
10652;BME280;5374;42.742;23.266;2022-09-30T10:02:21;95393.66;;;25.76;53.54
10652;BME280;5374;42.742;23.266;2022-09-30T10:05:22;95412.63;;;25.61;56.00
10652;BME280;5374;42.742;23.266;2022-09-30T10:08:14;95409.78;;;25.97;57.97
10652;BME280;5374;42.742;23.266;2022-09-30T10:11:04;95403.56;;;26.28;53.66
10652;BME280;5374;42.742;23.266;2022-09-30T10:13:54;95403.53;;;26.40;47.13
10652;BME280;5374;42.742;23.266;2022-09-30T10:16:44;95391.22;;;26.46;45.21
10652;BME280;5374;42.742;23.266;2022-09-30T10:19:33;95399.91;;;26.68;44.64
10652;BME280;5374;42.742;23.266;2022-09-30T10:22:24;95402.78;;;26.75;44.89
10652;BME280;5374;42.742;23.266;2022-09-30T10:25:20;95393.66;;;26.99;46.71
10652;BME280;5374;42.742;23.266;2022-09-30T10:28:21;95412.22;;;27.28;44.53
10652;BME280;5374;42.742;23.266;2022-09-30T10:31:12;95395.84;;;27.28;42.69
10652;BME280;5374;42.742;23.266;2022-09-30T10:34:16;95393.25;;;27.35;43.17
10652;BME280;5374;42.742;23.266;2022-09-30T10:37:08;95392.25;;;27.43;43.33
10652;BME280;5374;42.742;23.266;2022-09-30T10:39:59;95397.16;;;27.53;42.29
10652;BME280;5374;42.742;23.266;2022-09-30T10:42:48;95393.22;;;27.51;41.72
10652;BME280;5374;42.742;23.266;2022-09-30T10:45:37;95407.88;;;27.62;42.19
10652;BME280;5374;42.742;23.266;2022-09-30T10:48:28;95405.94;;;27.63;40.73
10652;BME280;5374;42.742;23.266;2022-09-30T10:51:23;95403.84;;;27.56;39.91
10652;BME280;5374;42.742;23.266;2022-09-30T10:54:34;95391.28;;;27.71;42.89
10652;BME280;5374;42.742;23.266;2022-09-30T10:57:24;95405.94;;;27.63;42.27
10652;BME280;5374;42.742;23.266;2022-09-30T11:00:14;95403.47;;;27.57;41.25
10652;BME280;5374;42.742;23.266;2022-09-30T11:03:06;95405.28;;;27.69;40.60
10652;BME280;5374;42.742;23.266;2022-09-30T11:05:58;95414.78;;;27.75;38.95
10652;BME280;5374;42.742;23.266;2022-09-30T11:08:52;95409.03;;;27.61;39.43
10652;BME280;5374;42.742;23.266;2022-09-30T11:11:44;95413.56;;;27.57;39.58
10652;BME280;5374;42.742;23.266;2022-09-30T11:14:38;95402.06;;;27.64;40.29
10652;BME280;5374;42.742;23.266;2022-09-30T11:17:32;95406.00;;;27.85;40.60
10652;BME280;5374;42.742;23.266;2022-09-30T11:20:26;95406.69;;;28.02;39.54
10652;BME280;5374;42.742;23.266;2022-09-30T11:23:19;95411.13;;;28.29;39.34
10652;BME280;5374;42.742;23.266;2022-09-30T11:26:15;95417.56;;;28.40;37.64
10652;BME280;5374;42.742;23.266;2022-09-30T11:29:14;95394.91;;;28.40;38.36
10652;BME280;5374;42.742;23.266;2022-09-30T11:32:12;95421.03;;;28.83;37.83
10652;BME280;5374;42.742;23.266;2022-09-30T11:35:15;95420.81;;;28.95;36.23
10652;BME280;5374;42.742;23.266;2022-09-30T11:38:13;95415.81;;;29.01;37.46
10652;BME280;5374;42.742;23.266;2022-09-30T11:41:08;95409.44;;;29.19;36.63
10652;BME280;5374;42.742;23.266;2022-09-30T11:44:12;95418.13;;;29.25;35.78
10652;BME280;5374;42.742;23.266;2022-09-30T11:47:15;95416.13;;;29.22;37.02
10652;BME280;5374;42.742;23.266;2022-09-30T11:50:21;95408.25;;;28.90;37.29
10652;BME280;5374;42.742;23.266;2022-09-30T11:53:16;95379.84;;;28.49;38.40
10652;BME280;5374;42.742;23.266;2022-09-30T11:56:18;95406.13;;;28.57;38.31
10652;BME280;5374;42.742;23.266;2022-09-30T11:59:17;95410.22;;;28.67;37.09
10652;BME280;5374;42.742;23.266;2022-09-30T12:02:17;95421.16;;;28.67;37.63
10652;BME280;5374;42.742;23.266;2022-09-30T12:05:13;95408.50;;;28.59;38.02
10652;BME280;5374;42.742;23.266;2022-09-30T12:08:08;95414.56;;;28.49;37.41
10652;BME280;5374;42.742;23.266;2022-09-30T12:11:00;95413.00;;;28.25;37.52
10652;BME280;5374;42.742;23.266;2022-09-30T12:13:52;95421.50;;;28.01;37.53
10652;BME280;5374;42.742;23.266;2022-09-30T12:16:44;95417.34;;;27.87;37.51
10652;BME280;5374;42.742;23.266;2022-09-30T12:19:34;95421.81;;;27.76;38.61
10652;BME280;5374;42.742;23.266;2022-09-30T12:22:27;95424.41;;;27.69;38.59
10652;BME280;5374;42.742;23.266;2022-09-30T12:25:20;95431.28;;;27.82;38.53
10652;BME280;5374;42.742;23.266;2022-09-30T12:28:15;95421.72;;;27.92;38.30
10652;BME280;5374;42.742;23.266;2022-09-30T12:31:43;95428.22;;;28.07;37.35
10652;BME280;5374;42.742;23.266;2022-09-30T12:34:48;95431.97;;;28.18;37.03
10652;BME280;5374;42.742;23.266;2022-09-30T12:37:49;95426.97;;;28.20;37.43
10652;BME280;5374;42.742;23.266;2022-09-30T12:41:02;95416.72;;;28.17;38.00
10652;BME280;5374;42.742;23.266;2022-09-30T12:44:27;95423.34;;;28.16;37.99
10652;BME280;5374;42.742;23.266;2022-09-30T12:47:35;95420.03;;;28.07;37.65
10652;BME280;5374;42.742;23.266;2022-09-30T12:50:34;95417.75;;;28.09;37.58
10652;BME280;5374;42.742;23.266;2022-09-30T12:53:38;95416.84;;;28.01;37.32
10652;BME280;5374;42.742;23.266;2022-09-30T12:56:30;95430.78;;;27.96;38.00
10652;BME280;5374;42.742;23.266;2022-09-30T12:59:24;95419.78;;;27.92;37.49
10652;BME280;5374;42.742;23.266;2022-09-30T13:02:36;95417.19;;;27.80;38.19
10652;BME280;5374;42.742;23.266;2022-09-30T13:05:49;95421.72;;;27.53;38.96
10652;BME280;5374;42.742;23.266;2022-09-30T13:08:44;95431.03;;;27.52;37.55
10652;BME280;5374;42.742;23.266;2022-09-30T13:11:36;95426.66;;;27.48;37.32
10652;BME280;5374;42.742;23.266;2022-09-30T13:14:30;95414.88;;;27.44;37.27
10652;BME280;5374;42.742;23.266;2022-09-30T13:17:27;95424.03;;;27.36;37.57
10652;BME280;5374;42.742;23.266;2022-09-30T13:23:46;95428.31;;;27.17;37.91
10652;BME280;5374;42.742;23.266;2022-09-30T13:26:44;95429.63;;;27.23;37.34
10652;BME280;5374;42.742;23.266;2022-09-30T13:29:37;95437.16;;;27.11;38.14
10652;BME280;5374;42.742;23.266;2022-09-30T13:32:33;95426.25;;;27.11;37.82
10652;BME280;5374;42.742;23.266;2022-09-30T13:35:30;95431.84;;;27.18;37.89
10652;BME280;5374;42.742;23.266;2022-09-30T13:38:18;95436.06;;;27.15;38.10
10652;BME280;5374;42.742;23.266;2022-09-30T13:41:20;95429.34;;;27.09;37.58
10652;BME280;5374;42.742;23.266;2022-09-30T13:44:13;95430.31;;;27.01;38.28
10652;BME280;5374;42.742;23.266;2022-09-30T13:47:12;95404.28;;;26.88;37.98
10652;BME280;5374;42.742;23.266;2022-09-30T13:50:09;95423.88;;;26.94;37.74
10652;BME280;5374;42.742;23.266;2022-09-30T13:53:01;95432.75;;;26.90;37.62
10652;BME280;5374;42.742;23.266;2022-09-30T13:55:53;95438.03;;;26.83;37.39
10652;BME280;5374;42.742;23.266;2022-09-30T13:59:02;95438.66;;;26.77;38.03
10652;BME280;5374;42.742;23.266;2022-09-30T14:02:07;95439.03;;;26.60;38.45
10652;BME280;5374;42.742;23.266;2022-09-30T14:05:41;95445.81;;;26.66;38.12
10652;BME280;5374;42.742;23.266;2022-09-30T14:08:51;95444.28;;;26.52;38.47
10652;BME280;5374;42.742;23.266;2022-09-30T14:12:05;95445.34;;;26.48;38.38
10652;BME280;5374;42.742;23.266;2022-09-30T14:15:31;95455.09;;;26.33;39.28
10652;BME280;5374;42.742;23.266;2022-09-30T14:18:41;95453.06;;;26.30;38.94
10652;BME280;5374;42.742;23.266;2022-09-30T14:21:33;95461.22;;;26.30;38.75
10652;BME280;5374;42.742;23.266;2022-09-30T14:24:23;95463.94;;;26.30;39.38
10652;BME280;5374;42.742;23.266;2022-09-30T14:27:26;95458.03;;;26.28;39.10
10652;BME280;5374;42.742;23.266;2022-09-30T14:30:18;95460.13;;;26.19;38.80
10652;BME280;5374;42.742;23.266;2022-09-30T14:33:16;95454.25;;;26.17;39.27
10652;BME280;5374;42.742;23.266;2022-09-30T14:36:12;95474.16;;;26.21;40.03
10652;BME280;5374;42.742;23.266;2022-09-30T14:39:01;95473.91;;;26.10;40.51
10652;BME280;5374;42.742;23.266;2022-09-30T14:41:52;95469.94;;;26.08;39.05
10652;BME280;5374;42.742;23.266;2022-09-30T14:44:41;95465.88;;;26.02;39.79
10652;BME280;5374;42.742;23.266;2022-09-30T14:47:28;95466.56;;;25.99;40.41
10652;BME280;5374;42.742;23.266;2022-09-30T14:50:20;95475.69;;;25.91;40.95
10652;BME280;5374;42.742;23.266;2022-09-30T14:53:23;95450.78;;;25.76;40.89
10652;BME280;5374;42.742;23.266;2022-09-30T14:56:18;95484.53;;;25.87;41.04
10652;BME280;5374;42.742;23.266;2022-09-30T14:59:15;95481.50;;;25.77;41.37
10652;BME280;5374;42.742;23.266;2022-09-30T15:02:11;95468.59;;;25.62;41.22
10652;BME280;5374;42.742;23.266;2022-09-30T15:05:02;95488.34;;;25.59;41.88
10652;BME280;5374;42.742;23.266;2022-09-30T15:07:52;95479.19;;;25.51;42.50
10652;BME280;5374;42.742;23.266;2022-09-30T15:10:45;95486.00;;;25.45;42.53
10652;BME280;5374;42.742;23.266;2022-09-30T15:13:33;95479.66;;;25.41;42.88
10652;BME280;5374;42.742;23.266;2022-09-30T15:16:27;95477.06;;;25.32;43.24
10652;BME280;5374;42.742;23.266;2022-09-30T15:19:19;95466.44;;;25.27;43.55
10652;BME280;5374;42.742;23.266;2022-09-30T15:22:09;95483.44;;;25.12;43.73
10652;BME280;5374;42.742;23.266;2022-09-30T15:24:59;95489.00;;;25.03;44.30
10652;BME280;5374;42.742;23.266;2022-09-30T15:27:47;95493.47;;;24.87;44.84